Orbital elements of EXPRESS-MD1
| Launched | 10 February 2009 |
| Flight ended | – |
| Launch site | Tyuratam Missile and Space Center, Kazakhstan (Also known as Baikonur Cosmodrome) |
| Owner | Commonwealth of Independent States (former USSR) |
| NORAD ID | 33596 |
| Date fetched |
Epoch osculation |
Inc. [°] |
Ecc. | RA asc node [hr] |
Arg Peri. [°] |
Mean anom [°] |
Mean motion [rev/day] |
Abs. mag |
| Date fetched |
Epoch osculation |
Inc. [°] |
Ecc. | RA asc node [hr] |
Arg Peri. [°] |
Mean anom [°] |
Mean motion [rev/day] |
Abs. mag |
| 2026 May 01 17:56 | 2026 Apr 30 12:32:51 | 10.0755 | 0.00109 | 3.5442 | 346.6909 | 175.4535 | 0.99115 | – |
| 2026 Apr 30 17:56 | 2026 Apr 30 12:32:51 | 10.0755 | 0.00109 | 3.5442 | 346.6909 | 175.4535 | 0.99115 | – |
| 2026 Apr 29 17:57 | 2026 Apr 24 11:09:14 | 10.0617 | 0.00110 | 3.5481 | 345.9958 | 175.4535 | 0.99115 | – |
| 2026 Apr 28 17:56 | 2026 Apr 24 11:09:14 | 10.0617 | 0.00110 | 3.5481 | 345.9958 | 175.4535 | 0.99115 | – |
| 2026 Apr 27 17:58 | 2026 Apr 24 11:09:14 | 10.0617 | 0.00110 | 3.5481 | 345.9958 | 175.4535 | 0.99115 | – |
| 2026 Apr 26 17:58 | 2026 Apr 24 11:09:14 | 10.0617 | 0.00110 | 3.5481 | 345.9958 | 175.4535 | 0.99115 | – |
| 2026 Apr 25 17:58 | 2026 Apr 24 11:09:14 | 10.0617 | 0.00110 | 3.5481 | 345.9958 | 175.4535 | 0.99115 | – |
| 2026 Apr 24 17:59 | 2026 Apr 24 11:09:14 | 10.0617 | 0.00110 | 3.5481 | 345.9958 | 175.4535 | 0.99115 | – |
| 2026 Apr 23 17:57 | 2026 Apr 19 11:08:11 | 10.0506 | 0.00110 | 3.5513 | 345.1673 | 175.4535 | 0.99115 | – |
| 2026 Apr 22 17:57 | 2026 Apr 19 11:08:11 | 10.0506 | 0.00110 | 3.5513 | 345.1673 | 175.4535 | 0.99115 | – |
| 2026 Apr 21 17:57 | 2026 Apr 19 11:08:11 | 10.0506 | 0.00110 | 3.5513 | 345.1673 | 175.4535 | 0.99115 | – |
| 2026 Apr 20 17:57 | 2026 Apr 19 11:08:11 | 10.0506 | 0.00110 | 3.5513 | 345.1673 | 175.4535 | 0.99115 | – |
| 2026 Apr 19 17:58 | 2026 Apr 19 11:08:11 | 10.0506 | 0.00110 | 3.5513 | 345.1673 | 175.4535 | 0.99115 | – |
| 2026 Apr 18 17:56 | 2026 Apr 12 22:09:34 | 10.0361 | 0.00109 | 3.5555 | 343.7196 | 175.4535 | 0.99115 | – |
| 2026 Apr 16 17:57 | 2026 Apr 12 22:09:34 | 10.0361 | 0.00109 | 3.5555 | 343.7196 | 175.4535 | 0.99115 | – |
| 2026 Apr 14 17:57 | 2026 Apr 12 22:09:34 | 10.0361 | 0.00109 | 3.5555 | 343.7196 | 175.4535 | 0.99115 | – |
| 2026 Apr 13 17:57 | 2026 Apr 12 22:09:34 | 10.0361 | 0.00109 | 3.5555 | 343.7196 | 175.4535 | 0.99115 | – |
| 2026 Apr 12 17:57 | 2026 Apr 08 08:43:45 | 10.0256 | 0.00108 | 3.5584 | 342.8449 | 175.4535 | 0.99115 | – |
| 2026 Apr 11 17:57 | 2026 Apr 08 08:43:45 | 10.0256 | 0.00108 | 3.5584 | 342.8449 | 175.4535 | 0.99115 | – |
| 2026 Apr 10 17:58 | 2026 Apr 08 08:43:45 | 10.0256 | 0.00108 | 3.5584 | 342.8449 | 175.4535 | 0.99115 | – |
| 2026 Apr 09 18:01 | 2026 Apr 08 08:43:45 | 10.0256 | 0.00108 | 3.5584 | 342.8449 | 175.4535 | 0.99115 | – |
| 2026 Apr 08 17:57 | 2026 Apr 08 08:43:45 | 10.0256 | 0.00108 | 3.5584 | 342.8449 | 175.4535 | 0.99115 | – |
| 2026 Apr 07 17:57 | 2026 Apr 01 07:26:47 | 10.0092 | 0.00107 | 3.5629 | 341.7285 | 175.4535 | 0.99115 | – |
| 2026 Apr 06 17:57 | 2026 Apr 01 07:26:47 | 10.0092 | 0.00107 | 3.5629 | 341.7285 | 175.4535 | 0.99115 | – |
| 2026 Apr 05 17:56 | 2026 Apr 01 07:26:47 | 10.0092 | 0.00107 | 3.5629 | 341.7285 | 175.4535 | 0.99115 | – |
| 2026 Apr 04 17:57 | 2026 Apr 01 07:26:47 | 10.0092 | 0.00107 | 3.5629 | 341.7285 | 175.4535 | 0.99115 | – |